createdAt,value
2023-03-02T00:00:37.591Z,45.5
2023-03-02T00:15:38.359Z,41.2
2023-03-02T00:30:41.546Z,38.7
2023-03-02T00:45:39.200Z,33.8
2023-03-02T01:00:39.390Z,30.7
2023-03-02T01:15:40.727Z,29.8
2023-03-02T01:30:42.481Z,27
2023-03-02T01:45:45.625Z,30.5
2023-03-02T02:00:43.334Z,31.8
2023-03-02T02:01:27.319Z,34
2023-03-02T02:15:43.873Z,34.1
2023-03-02T02:30:43.799Z,37.8
2023-03-02T02:45:45.529Z,37.4
2023-03-02T03:00:48.266Z,35.7
2023-03-02T03:15:46.378Z,36.1
2023-03-02T03:30:49.582Z,36.3
2023-03-02T03:45:47.668Z,34.5
2023-03-02T04:00:48.338Z,35.3
2023-03-02T04:15:49.058Z,35.4
2023-03-02T04:30:49.530Z,34.6
2023-03-02T04:45:49.674Z,32.5
2023-03-02T05:00:51.136Z,32.6
2023-03-02T05:15:53.952Z,30.9
2023-03-02T05:30:52.167Z,31.3
2023-03-02T05:45:55.102Z,29.4
2023-03-02T05:52:37.060Z,30.3
2023-03-02T06:07:39.959Z,31.1
2023-03-02T06:22:38.006Z,29.4
2023-03-02T06:37:39.601Z,29.5
2023-03-02T06:52:39.395Z,29.8
2023-03-02T07:07:41.241Z,28.4
2023-03-02T07:22:41.267Z,30.6
2023-03-02T07:37:42.278Z,30.9
2023-03-02T07:52:42.763Z,29.5
2023-03-02T08:07:43.931Z,29.7
2023-03-02T08:22:43.621Z,31.1
2023-03-02T08:37:48.964Z,28.8
2023-03-02T08:52:47.409Z,29.4
2023-03-02T09:07:45.326Z,32.3
2023-03-02T09:22:45.446Z,28.8
2023-03-02T09:37:59.323Z,27.8
2023-03-02T10:07:59.598Z,29.5
2023-03-02T10:23:32.526Z,28.4
2023-03-02T10:38:00.789Z,29.2
2023-03-02T12:22:56.767Z,27.9
2023-03-02T12:37:55.762Z,30.2
2023-03-02T12:52:55.400Z,28.8
2023-03-02T13:07:56.655Z,28.2
2023-03-02T13:22:57.323Z,29.9
2023-03-02T13:37:57.977Z,31
2023-03-02T13:53:01.100Z,28.7
2023-03-02T14:08:00.351Z,29.7
2023-03-02T14:23:02.272Z,28.1
2023-03-02T14:38:04.114Z,28.8
2023-03-02T14:53:03.213Z,28.9
2023-03-02T15:08:12.583Z,29.7
2023-03-02T15:23:12.868Z,28.5
2023-03-02T15:38:04.472Z,29.2
2023-03-02T15:53:19.361Z,28.9
2023-03-02T16:08:05.283Z,29.4
2023-03-02T16:38:37.998Z,28
2023-03-02T16:53:06.442Z,31.7
2023-03-02T17:08:06.870Z,30.8
2023-03-02T17:23:09.751Z,35.2
2023-03-02T23:00:48.299Z,40.9
2023-03-02T23:15:34.317Z,42
2023-03-02T23:30:34.211Z,45.2
2023-03-02T23:45:35.887Z,41.5
